createdAt,value
2023-04-15T00:00:56.472Z,100314.59
2023-04-15T00:03:23.462Z,100313.75
2023-04-15T00:05:50.441Z,100314.59
2023-04-15T00:08:17.074Z,100313.59
2023-04-15T00:10:43.700Z,100314.59
2023-04-15T00:13:10.299Z,100305.50
2023-04-15T00:15:38.285Z,100301.81
2023-04-15T00:18:04.881Z,100312.63
2023-04-15T00:20:31.504Z,100306.19
2023-04-15T00:22:58.276Z,100300.78
2023-04-15T00:25:25.003Z,100299.78
2023-04-15T00:27:51.737Z,100293.25
2023-04-15T00:30:18.291Z,100295.25
2023-04-15T00:32:46.524Z,100283.59
2023-04-15T00:35:13.118Z,100289.00
2023-04-15T00:37:39.693Z,100289.00
2023-04-15T00:40:12.070Z,100291.84
2023-04-15T00:42:39.498Z,100292.56
2023-04-15T00:45:06.964Z,100288.84
2023-04-15T00:47:35.243Z,100291.56
2023-04-15T00:50:03.517Z,100290.56
2023-04-15T00:52:30.092Z,100286.16
2023-04-15T00:54:56.774Z,100283.59
2023-04-15T00:57:23.439Z,100281.06
2023-04-15T00:59:52.346Z,100287.31
2023-04-15T01:02:19.168Z,100288.16
2023-04-15T01:04:45.836Z,100282.59
2023-04-15T01:07:13.893Z,100292.69
2023-04-15T01:09:40.705Z,100285.44
2023-04-15T01:12:07.978Z,100284.59
2023-04-15T01:14:34.643Z,100281.91
2023-04-15T01:17:01.305Z,100275.66
2023-04-15T01:19:28.336Z,100277.53
2023-04-15T01:21:55.382Z,100272.81
2023-04-15T01:24:26.054Z,100277.22
2023-04-15T01:26:54.117Z,100272.81
2023-04-15T01:29:20.988Z,100275.66
2023-04-15T01:31:51.862Z,100274.84
2023-04-15T01:34:19.247Z,100276.50
2023-04-15T01:36:45.900Z,100269.59
2023-04-15T01:39:12.598Z,100279.19
2023-04-15T01:41:39.363Z,100269.44
2023-04-15T01:44:07.698Z,100271.97
2023-04-15T01:46:34.669Z,100277.34
2023-04-15T01:49:01.649Z,100274.50
2023-04-15T01:51:28.621Z,100267.41
2023-04-15T01:53:55.354Z,100264.88
2023-04-15T01:56:21.986Z,100267.41
2023-04-15T01:58:48.550Z,100262.03
2023-04-15T02:01:16.580Z,100265.41
2023-04-15T02:03:43.322Z,100256.63
2023-04-15T02:06:10.003Z,100261.03
2023-04-15T02:08:36.627Z,100261.03
2023-04-15T02:11:03.277Z,100254.78
2023-04-15T02:13:29.906Z,100262.03
2023-04-15T02:15:57.201Z,100250.22
2023-04-15T02:18:25.243Z,100254.63
2023-04-15T02:20:52.611Z,100251.94
2023-04-15T02:23:19.355Z,100255.47
2023-04-15T02:25:53.313Z,100255.63
2023-04-15T02:28:20.941Z,100256.63
2023-04-15T02:30:48.430Z,100255.63
2023-04-15T02:33:15.126Z,100255.94
2023-04-15T02:35:43.072Z,100248.66
2023-04-15T02:38:09.652Z,100244.13
2023-04-15T02:40:36.233Z,100252.06
2023-04-15T02:43:02.969Z,100252.22
2023-04-15T02:45:29.547Z,100254.91
2023-04-15T02:47:56.160Z,100264.72
2023-04-15T02:50:22.757Z,100255.63
2023-04-15T02:52:51.147Z,100258.31
2023-04-15T02:55:17.731Z,100255.78
2023-04-15T02:57:44.310Z,100256.63
2023-04-15T03:00:12.209Z,100258.31
2023-04-15T03:02:39.398Z,100258.31
2023-04-15T03:05:07.183Z,100258.31
2023-04-15T03:07:33.778Z,100258.31
2023-04-15T03:10:01.935Z,100260.03
2023-04-15T03:12:28.543Z,100261.88
2023-04-15T03:14:55.137Z,100262.88
2023-04-15T03:17:21.717Z,100258.31
2023-04-15T03:19:48.387Z,100259.19
2023-04-15T03:22:15.296Z,100257.31
2023-04-15T03:24:41.921Z,100254.63
2023-04-15T03:27:09.900Z,100258.31
2023-04-15T03:29:36.553Z,100255.63
2023-04-15T03:32:03.373Z,100257.31
2023-04-15T03:34:30.024Z,100258.31
2023-04-15T03:36:56.661Z,100256.94
2023-04-15T03:39:23.256Z,100256.94
2023-04-15T03:41:49.836Z,100262.34
2023-04-15T03:44:18.055Z,100256.78
2023-04-15T03:46:44.837Z,100259.47
2023-04-15T03:49:11.454Z,100264.72
2023-04-15T03:51:38.129Z,100262.03
2023-04-15T03:54:04.784Z,100264.56
2023-04-15T03:56:31.472Z,100259.19
2023-04-15T03:58:58.060Z,100263.56
2023-04-15T04:01:26.090Z,100261.03
2023-04-15T04:03:52.881Z,100260.03
2023-04-15T04:06:19.970Z,100255.47
2023-04-15T04:08:46.615Z,100254.63
2023-04-15T04:11:13.237Z,100256.47
2023-04-15T04:13:40.089Z,100266.41
2023-04-15T04:16:07.385Z,100265.56
2023-04-15T04:18:35.621Z,100266.28
2023-04-15T04:21:02.445Z,100261.69
2023-04-15T04:23:29.047Z,100276.22
2023-04-15T04:25:55.685Z,100263.72
2023-04-15T04:28:22.290Z,100260.03
2023-04-15T04:30:48.996Z,100267.09
2023-04-15T04:33:15.690Z,100267.09
2023-04-15T04:35:43.699Z,100275.88
2023-04-15T04:38:10.447Z,100268.66
2023-04-15T04:40:37.093Z,100278.25
2023-04-15T04:43:03.702Z,100276.59
2023-04-15T04:45:30.325Z,100279.13
2023-04-15T04:47:56.963Z,100271.03
2023-04-15T04:50:23.544Z,100276.28
2023-04-15T04:52:51.545Z,100276.09
2023-04-15T04:55:18.261Z,100280.66
2023-04-15T04:57:45.096Z,100279.66
2023-04-15T05:00:12.482Z,100283.03
2023-04-15T05:02:39.178Z,100281.19
2023-04-15T05:05:06.996Z,100281.03
2023-04-15T05:07:33.865Z,100288.31
2023-04-15T05:10:01.875Z,100285.41
2023-04-15T05:12:28.718Z,100288.13
2023-04-15T05:14:55.642Z,100296.06
2023-04-15T05:17:22.315Z,100293.38
2023-04-15T05:19:48.922Z,100298.44
2023-04-15T05:22:15.744Z,100295.59
2023-04-15T05:24:42.366Z,100298.97
2023-04-15T05:27:10.366Z,100297.81
2023-04-15T05:29:37.152Z,100292.25
2023-04-15T05:32:03.941Z,100300.19
2023-04-15T05:34:30.504Z,100301.06
2023-04-15T05:36:57.143Z,100303.59
2023-04-15T05:39:23.775Z,100302.75
2023-04-15T05:41:50.391Z,100310.69
2023-04-15T05:44:18.436Z,100306.97
2023-04-15T05:46:45.003Z,100307.50
2023-04-15T05:49:11.634Z,100313.44
2023-04-15T05:51:38.390Z,100320.72
2023-04-15T05:54:05.020Z,100317.69
2023-04-15T05:56:31.862Z,100303.84
2023-04-15T05:58:58.586Z,100313.50
2023-04-15T06:01:26.564Z,100316.03
2023-04-15T06:03:53.543Z,100317.59
2023-04-15T06:06:20.255Z,100316.25
2023-04-15T06:08:46.899Z,100309.66
2023-04-15T06:11:14.497Z,100310.19
2023-04-15T06:13:41.172Z,100307.34
2023-04-15T06:16:07.955Z,100307.72
2023-04-15T06:18:36.008Z,100313.50
2023-04-15T06:21:02.791Z,100304.91
2023-04-15T06:23:29.603Z,100309.63
2023-04-15T06:25:56.229Z,100311.00
2023-04-15T06:28:22.967Z,100308.53
2023-04-15T06:30:49.623Z,100310.56
2023-04-15T06:33:16.225Z,100314.88
2023-04-15T06:35:44.208Z,100312.34
2023-04-15T06:38:10.789Z,100316.25
2023-04-15T06:40:37.398Z,100323.88
2023-04-15T06:43:04.090Z,100320.53
2023-04-15T06:45:30.730Z,100315.16
2023-04-15T06:47:57.485Z,100324.78
2023-04-15T06:50:24.079Z,100316.19
2023-04-15T06:52:52.432Z,100314.00
2023-04-15T06:55:19.151Z,100317.38
2023-04-15T06:57:45.918Z,100321.28
2023-04-15T07:00:13.703Z,100324.50
2023-04-15T07:02:40.559Z,100313.88
2023-04-15T07:05:07.631Z,100319.44
2023-04-15T07:07:34.259Z,100324.88
2023-04-15T07:10:03.953Z,100333.34
2023-04-15T07:12:30.679Z,100337.59
2023-04-15T07:14:57.549Z,100350.44
2023-04-15T07:17:24.406Z,100339.44
2023-04-15T07:19:51.017Z,100349.91
2023-04-15T07:22:17.616Z,100353.97
2023-04-15T07:24:44.288Z,100362.28
2023-04-15T07:27:12.257Z,100357.03
2023-04-15T07:29:38.918Z,100359.72
2023-04-15T07:32:06.034Z,100360.22
2023-04-15T07:34:32.833Z,100352.78
2023-04-15T07:36:59.667Z,100357.88
2023-04-15T07:39:26.348Z,100366.34
2023-04-15T07:41:53.067Z,100367.31
2023-04-15T07:44:21.104Z,100377.84
2023-04-15T07:46:48.394Z,100369.03
2023-04-15T07:49:15.612Z,100372.44
2023-04-15T07:51:42.681Z,100380.22
2023-04-15T07:54:11.685Z,100375.47
2023-04-15T07:56:40.333Z,100374.63
2023-04-15T07:59:07.249Z,100381.91
2023-04-15T08:01:35.406Z,100390.03
2023-04-15T08:04:02.342Z,100384.28
2023-04-15T08:06:29.362Z,100382.94
2023-04-15T08:08:56.080Z,100380.03
2023-04-15T08:11:23.822Z,100381.91
2023-04-15T08:13:50.533Z,100385.97
2023-04-15T08:16:19.491Z,100393.25
2023-04-15T08:18:48.384Z,100393.09
2023-04-15T08:21:15.860Z,100391.22
2023-04-15T08:23:43.115Z,100392.44
2023-04-15T08:26:09.882Z,100394.59
2023-04-15T08:28:38.812Z,100399.53
2023-04-15T08:31:05.878Z,100396.97
2023-04-15T08:33:32.638Z,100402.91
2023-04-15T08:36:00.980Z,100402.56
2023-04-15T08:38:27.772Z,100402.91
2023-04-15T08:40:57.222Z,100416.97
2023-04-15T08:43:27.721Z,100401.91
2023-04-15T08:45:55.293Z,100399.19
2023-04-15T08:48:22.232Z,100409.34
2023-04-15T08:50:49.386Z,100409.34
2023-04-15T08:53:18.430Z,100409.69
2023-04-15T08:55:46.941Z,100418.81
2023-04-15T08:58:14.602Z,100417.47
2023-04-15T09:00:42.184Z,100417.47
2023-04-15T09:03:09.552Z,100422.88
2023-04-15T09:05:37.237Z,100427.31
2023-04-15T09:08:04.987Z,100425.25
2023-04-15T09:10:33.721Z,100428.31
2023-04-15T09:13:01.022Z,100425.25
2023-04-15T09:15:28.191Z,100431.88
2023-04-15T09:17:55.458Z,100425.59
2023-04-15T09:20:22.822Z,100437.44
2023-04-15T09:22:50.868Z,100430.66
2023-04-15T09:25:31.131Z,100432.38
2023-04-15T09:28:01.876Z,100436.44
2023-04-15T09:30:29.458Z,100434.22
2023-04-15T09:32:57.698Z,100435.44
2023-04-15T09:35:26.286Z,100442.53
2023-04-15T09:37:54.067Z,100442.53
2023-04-15T09:40:34.272Z,100444.91
2023-04-15T09:43:03.264Z,100441.19
2023-04-15T09:45:30.124Z,100440.84
2023-04-15T09:47:59.223Z,100441.56
2023-04-15T09:50:28.459Z,100437.50
2023-04-15T09:52:55.677Z,100445.97
2023-04-15T09:55:22.808Z,100453.06
2023-04-15T09:57:49.486Z,100454.94
2023-04-15T10:00:17.862Z,100457.81
2023-04-15T10:02:48.149Z,100461.53
2023-04-15T10:05:15.810Z,100469.00
2023-04-15T10:07:42.766Z,100461.53
2023-04-15T10:10:10.794Z,100466.97
2023-04-15T10:12:38.531Z,100483.56
2023-04-15T10:15:06.872Z,100464.09
2023-04-15T10:17:36.989Z,100467.66
2023-04-15T10:20:05.197Z,100474.94
2023-04-15T10:22:32.907Z,100473.34
2023-04-15T10:25:00.292Z,100466.13
2023-04-15T10:27:28.400Z,100478.66
2023-04-15T10:29:56.678Z,100476.44
2023-04-15T10:32:25.235Z,100485.59
2023-04-15T10:34:54.827Z,100476.78
2023-04-15T10:37:22.387Z,100481.03
2023-04-15T10:39:49.133Z,100479.16
2023-04-15T10:42:17.887Z,100480.16
2023-04-15T10:44:48.585Z,100483.06
2023-04-15T10:47:17.378Z,100491.00
2023-04-15T10:49:46.466Z,100484.75
2023-04-15T10:52:17.620Z,100489.00
2023-04-15T10:54:45.439Z,100494.91
2023-04-15T10:57:21.780Z,100495.09
2023-04-15T11:00:12.157Z,100498.47
2023-04-15T11:02:41.801Z,100498.31
2023-04-15T11:05:10.506Z,100493.56
2023-04-15T11:07:51.225Z,100504.59
2023-04-15T11:10:51.512Z,100509.50
2023-04-15T11:13:21.542Z,100520.50
2023-04-15T11:15:49.608Z,100511.69
2023-04-15T11:18:18.684Z,100510.00
2023-04-15T11:20:46.866Z,100517.09
2023-04-15T11:23:15.882Z,100513.22
2023-04-15T11:25:44.220Z,100516.78
2023-04-15T11:28:12.321Z,100521.50
2023-04-15T11:30:40.143Z,100519.00
2023-04-15T11:33:08.646Z,100530.34
2023-04-15T11:35:35.960Z,100529.50
2023-04-15T11:38:05.737Z,100528.81
2023-04-15T11:40:34.020Z,100528.81
2023-04-15T11:43:08.183Z,100534.72
2023-04-15T11:45:35.752Z,100533.06
2023-04-15T11:48:07.373Z,100539.50
2023-04-15T11:50:34.454Z,100536.78
2023-04-15T11:53:03.324Z,100536.63
2023-04-15T11:55:31.192Z,100542.53
2023-04-15T11:58:13.941Z,100545.06
2023-04-15T12:00:47.559Z,100547.63
2023-04-15T12:03:19.875Z,100546.78
2023-04-15T12:06:07.240Z,100556.25
2023-04-15T12:08:57.064Z,100553.69
2023-04-15T12:11:33.074Z,100558.31
2023-04-15T12:14:05.693Z,100555.75
2023-04-15T12:16:36.990Z,100561.19
2023-04-15T12:19:16.798Z,100568.63
2023-04-15T12:21:46.335Z,100570.31
2023-04-15T12:24:13.301Z,100566.94
2023-04-15T12:26:44.969Z,100574.38
2023-04-15T12:29:14.364Z,100575.88
2023-04-15T12:31:51.127Z,100576.94
2023-04-15T12:34:19.234Z,100582.50
2023-04-15T12:36:45.995Z,100589.63
2023-04-15T12:39:13.463Z,100585.56
2023-04-15T12:41:40.116Z,100584.22
2023-04-15T12:44:07.104Z,100587.44
2023-04-15T12:46:36.410Z,100592.34
2023-04-15T12:49:04.369Z,100593.03
2023-04-15T12:51:31.036Z,100586.94
2023-04-15T12:53:57.892Z,100597.44
2023-04-15T12:56:24.596Z,100600.84
2023-04-15T12:58:51.387Z,100601.69
2023-04-15T13:01:18.096Z,100606.94
2023-04-15T13:03:46.425Z,100605.75
2023-04-15T13:06:13.343Z,100607.63
2023-04-15T13:08:42.732Z,100609.34
2023-04-15T13:11:14.805Z,100605.41
2023-04-15T13:13:41.488Z,100610.53
2023-04-15T13:16:08.342Z,100601.53
2023-04-15T13:18:35.158Z,100602.72
2023-04-15T13:21:05.234Z,100604.56
2023-04-15T13:23:32.073Z,100616.28
2023-04-15T13:25:58.880Z,100617.97
2023-04-15T13:28:26.346Z,100613.56
2023-04-15T13:30:53.769Z,100611.19
2023-04-15T13:33:21.010Z,100618.81
2023-04-15T13:35:47.813Z,100624.75
2023-04-15T13:38:15.971Z,100623.22
2023-04-15T13:40:42.664Z,100624.41
2023-04-15T13:43:09.312Z,100629.31
2023-04-15T13:45:36.116Z,100632.03
2023-04-15T13:48:02.998Z,100628.81
2023-04-15T13:50:29.635Z,100625.56
2023-04-15T13:52:56.701Z,100635.75
2023-04-15T13:55:26.368Z,100637.44
2023-04-15T13:57:53.964Z,100640.16
2023-04-15T14:00:20.597Z,100640.31
2023-04-15T14:02:47.477Z,100643.72
2023-04-15T14:05:14.366Z,100648.09
2023-04-15T14:07:41.063Z,100647.25
2023-04-15T14:10:08.800Z,100651.66
2023-04-15T14:12:36.832Z,100651.00
2023-04-15T14:15:03.986Z,100664.06
2023-04-15T14:17:30.628Z,100657.06
2023-04-15T14:19:57.286Z,100658.78
2023-04-15T14:22:23.907Z,100673.34
2023-04-15T14:24:50.553Z,100675.38
2023-04-15T14:27:17.329Z,100669.44
2023-04-15T14:29:45.332Z,100680.25
2023-04-15T14:32:12.887Z,100680.59
2023-04-15T14:34:39.788Z,100681.78
2023-04-15T14:37:06.543Z,100681.09
2023-04-15T14:39:33.305Z,100685.16
2023-04-15T14:41:59.908Z,100688.88
2023-04-15T14:44:26.608Z,100693.28
2023-04-15T14:46:54.745Z,100694.28
2023-04-15T14:49:21.502Z,100700.75
2023-04-15T14:51:48.111Z,100698.72
2023-04-15T14:54:15.361Z,100700.75
2023-04-15T14:56:41.962Z,100699.03
2023-04-15T14:59:08.873Z,100709.88
2023-04-15T15:01:35.623Z,100715.56
2023-04-15T15:04:04.229Z,100710.50
2023-04-15T15:06:31.065Z,100713.19
2023-04-15T15:08:57.714Z,100714.75
2023-04-15T15:11:24.631Z,100715.75
2023-04-15T15:13:51.396Z,100725.59
2023-04-15T15:16:18.346Z,100724.03
2023-04-15T15:18:45.190Z,100725.03
2023-04-15T15:21:13.348Z,100730.47
2023-04-15T15:23:39.979Z,100733.19
2023-04-15T15:26:06.699Z,100733.03
2023-04-15T15:28:34.221Z,100739.16
2023-04-15T15:31:00.907Z,100738.09
2023-04-15T15:33:29.020Z,100741.69
2023-04-15T15:35:58.202Z,100745.38
2023-04-15T15:38:26.290Z,100748.28
2023-04-15T15:40:52.982Z,100751.13
2023-04-15T15:43:19.605Z,100752.16
2023-04-15T15:45:46.382Z,100761.31
2023-04-15T15:48:13.078Z,100757.22
2023-04-15T15:50:39.784Z,100756.00
2023-04-15T15:53:06.422Z,100756.16
2023-04-15T15:55:34.669Z,100746.16
2023-04-15T15:58:01.316Z,100761.25
2023-04-15T16:00:28.003Z,100765.66
2023-04-15T16:03:06.972Z,100763.66
2023-04-15T16:05:34.513Z,100771.94
2023-04-15T16:08:01.159Z,100769.06
2023-04-15T16:10:27.989Z,100771.78
2023-04-15T16:12:56.169Z,100771.78
2023-04-15T16:15:23.011Z,100769.22
2023-04-15T16:17:49.814Z,100781.91
2023-04-15T16:20:16.744Z,100777.69
2023-04-15T16:22:43.652Z,100781.53
2023-04-15T16:25:10.377Z,100780.00
2023-04-15T16:27:54.074Z,100783.72
2023-04-15T16:30:26.355Z,100782.88
2023-04-15T16:32:53.281Z,100791.19
2023-04-15T16:35:19.996Z,100790.47
2023-04-15T16:37:46.638Z,100796.06
2023-04-15T16:40:13.477Z,100796.06
2023-04-15T16:42:40.185Z,100800.47
2023-04-15T16:45:07.476Z,100793.38
2023-04-15T16:47:35.651Z,100805.88
2023-04-15T16:50:02.336Z,100810.63
2023-04-15T16:52:29.241Z,100806.19
2023-04-15T16:54:55.892Z,100807.19
2023-04-15T16:57:22.664Z,100809.06
2023-04-15T16:59:51.624Z,100818.38
2023-04-15T17:02:18.611Z,100822.06
2023-04-15T17:04:46.667Z,100825.78
2023-04-15T17:07:13.820Z,100822.06
2023-04-15T17:09:40.582Z,100829.19
2023-04-15T17:12:07.722Z,100826.50
2023-04-15T17:14:34.444Z,100834.09
2023-04-15T17:17:04.133Z,100832.38
2023-04-15T17:19:30.727Z,100843.34
2023-04-15T17:21:59.689Z,100847.09
2023-04-15T17:24:26.529Z,100840.13
2023-04-15T17:26:54.077Z,100848.41
2023-04-15T17:29:20.779Z,100852.13
2023-04-15T17:31:47.499Z,100854.13
2023-04-15T17:34:15.889Z,100850.75
2023-04-15T17:36:42.961Z,100857.16
2023-04-15T17:39:11.050Z,100855.47
2023-04-15T17:41:37.782Z,100860.00
2023-04-15T17:44:04.713Z,100867.59
2023-04-15T17:46:31.602Z,100867.59
2023-04-15T17:48:58.310Z,100866.91
2023-04-15T17:51:25.130Z,100877.03
2023-04-15T17:53:51.797Z,100874.34
2023-04-15T17:56:19.827Z,100881.59
2023-04-15T17:58:46.681Z,100884.47
2023-04-15T18:01:13.618Z,100886.50
2023-04-15T18:03:40.469Z,100892.22
2023-04-15T18:06:07.223Z,100895.75
2023-04-15T18:08:33.926Z,100898.63
2023-04-15T18:11:00.572Z,100903.19
2023-04-15T18:13:28.564Z,100898.78
2023-04-15T18:15:55.508Z,100911.63
2023-04-15T18:18:22.133Z,100906.22
2023-04-15T18:20:48.759Z,100911.78
2023-04-15T18:23:15.486Z,100916.19
2023-04-15T18:25:42.146Z,100922.59
2023-04-15T18:28:09.066Z,100922.75
2023-04-15T18:30:37.099Z,100930.00
2023-04-15T18:33:03.986Z,100930.00
2023-04-15T18:35:30.643Z,100933.56
2023-04-15T18:37:57.533Z,100938.13
2023-04-15T18:40:24.329Z,100944.41
2023-04-15T18:42:50.966Z,100939.84
2023-04-15T18:45:17.780Z,100950.66
2023-04-15T18:47:46.145Z,100951.66
2023-04-15T18:50:12.901Z,100948.97
2023-04-15T18:52:40.732Z,100957.09
2023-04-15T18:55:07.735Z,100950.84
2023-04-15T18:57:34.762Z,100961.69
2023-04-15T19:00:01.661Z,100958.97
2023-04-15T19:02:28.402Z,100964.38
2023-04-15T19:04:56.550Z,100970.63
2023-04-15T19:07:23.190Z,100964.38
2023-04-15T19:09:49.864Z,100968.94
2023-04-15T19:12:16.675Z,100976.34
2023-04-15T19:14:43.246Z,100982.75
2023-04-15T19:17:09.829Z,100984.59
2023-04-15T19:19:36.680Z,100982.94
2023-04-15T19:22:04.775Z,100991.03
2023-04-15T19:24:33.034Z,100995.59
2023-04-15T19:26:59.953Z,100992.91
2023-04-15T19:29:26.642Z,101001.69
2023-04-15T19:31:54.437Z,100999.00
2023-04-15T19:34:21.097Z,100997.16
2023-04-15T19:36:47.712Z,100999.72
2023-04-15T19:39:15.779Z,101004.28
2023-04-15T19:41:42.435Z,101010.69
2023-04-15T19:44:09.045Z,101011.69
2023-04-15T19:46:35.835Z,101007.13
2023-04-15T19:49:02.820Z,101014.25
2023-04-15T19:51:29.734Z,101007.13
2023-04-15T19:53:56.384Z,101017.94
2023-04-15T19:56:24.388Z,101015.41
2023-04-15T19:58:51.089Z,101013.56
2023-04-15T20:01:18.110Z,101016.28
2023-04-15T20:03:44.854Z,101011.84
2023-04-15T20:06:11.691Z,101018.97
2023-04-15T20:08:38.384Z,101018.97
2023-04-15T20:11:04.930Z,101018.97
2023-04-15T20:13:32.962Z,101021.69
2023-04-15T20:15:59.550Z,101021.69
2023-04-15T20:18:26.152Z,101023.53
2023-04-15T20:20:52.690Z,101025.38
2023-04-15T20:23:19.356Z,101023.66
2023-04-15T20:25:45.963Z,101028.22
2023-04-15T20:28:12.731Z,101024.66
2023-04-15T20:30:40.776Z,101028.41
2023-04-15T20:33:07.418Z,101034.81
2023-04-15T20:35:34.195Z,101034.81
2023-04-15T20:38:01.089Z,101034.81
2023-04-15T20:40:27.900Z,101041.06
2023-04-15T20:42:54.742Z,101031.25
2023-04-15T20:45:21.483Z,101034.81
2023-04-15T20:47:49.480Z,101042.94
2023-04-15T20:50:16.233Z,101032.09
2023-04-15T20:52:42.958Z,101040.06
2023-04-15T20:55:09.926Z,101046.50
2023-04-15T20:57:36.483Z,101037.50
2023-04-15T21:00:03.793Z,101043.78
2023-04-15T21:02:30.607Z,101048.47
2023-04-15T21:04:58.937Z,101047.63
2023-04-15T21:07:25.505Z,101047.63
2023-04-15T21:09:52.133Z,101047.63
2023-04-15T21:12:18.909Z,101047.63
2023-04-15T21:14:45.543Z,101049.63
2023-04-15T21:17:12.185Z,101052.34
2023-04-15T21:19:38.906Z,101055.06
2023-04-15T21:22:06.882Z,101059.44
2023-04-15T21:24:33.525Z,101071.28
2023-04-15T21:27:00.155Z,101069.59
2023-04-15T21:29:26.743Z,101069.59
2023-04-15T21:31:53.477Z,101082.25
2023-04-15T21:34:20.250Z,101075.00
2023-04-15T21:36:46.871Z,101083.13
2023-04-15T21:39:14.842Z,101084.09
2023-04-15T21:41:41.546Z,101087.81
2023-04-15T21:44:08.306Z,101087.81
2023-04-15T21:46:36.173Z,101085.09
2023-04-15T21:49:03.378Z,101088.66
2023-04-15T21:51:30.190Z,101093.22
2023-04-15T21:53:56.780Z,101090.50
2023-04-15T21:56:24.974Z,101093.22
2023-04-15T21:58:56.169Z,101095.25
2023-04-15T22:01:22.830Z,101103.50
2023-04-15T22:03:49.627Z,101099.25
2023-04-15T22:06:16.680Z,101108.06
2023-04-15T22:08:55.373Z,101104.34
2023-04-15T22:11:31.257Z,101109.75
2023-04-15T22:13:58.493Z,101113.47
2023-04-15T22:16:25.804Z,101116.16
2023-04-15T22:18:52.530Z,101118.00
2023-04-15T22:21:19.222Z,101117.03
2023-04-15T22:23:46.355Z,101124.28
2023-04-15T22:26:12.998Z,101130.56
2023-04-15T22:28:41.077Z,101128.72
2023-04-15T22:31:07.862Z,101135.13
2023-04-15T22:33:34.493Z,101137.69
2023-04-15T22:36:01.142Z,101140.25
2023-04-15T22:38:27.716Z,101142.97
2023-04-15T22:40:54.406Z,101142.97
2023-04-15T22:43:21.115Z,101148.22
2023-04-15T22:45:50.682Z,101154.47
2023-04-15T22:48:17.397Z,101150.06
2023-04-15T22:50:44.160Z,101148.06
2023-04-15T22:53:10.859Z,101153.63
2023-04-15T22:55:37.395Z,101151.94
2023-04-15T22:58:04.013Z,101156.50
2023-04-15T23:00:30.673Z,101152.94
2023-04-15T23:02:59.208Z,101158.47
2023-04-15T23:05:25.960Z,101165.75
2023-04-15T23:07:52.557Z,101165.59
2023-04-15T23:10:19.165Z,101172.88
2023-04-15T23:12:45.782Z,101167.59
2023-04-15T23:15:12.378Z,101170.16
2023-04-15T23:17:39.059Z,101170.16
2023-04-15T23:20:07.916Z,101173.72
2023-04-15T23:22:34.545Z,101171.31
2023-04-15T23:25:01.095Z,101176.72
2023-04-15T23:27:27.707Z,101173.00
2023-04-15T23:29:54.288Z,101176.72
2023-04-15T23:32:20.945Z,101178.72
2023-04-15T23:34:47.574Z,101178.16
2023-04-15T23:37:17.765Z,101180.00
2023-04-15T23:39:44.652Z,101179.28
2023-04-15T23:42:11.376Z,101188.41
2023-04-15T23:44:37.981Z,101183.00
2023-04-15T23:47:04.672Z,101189.41
2023-04-15T23:49:31.341Z,101193.97
2023-04-15T23:51:57.951Z,101185.97
2023-04-15T23:54:25.944Z,101189.53
2023-04-15T23:56:52.612Z,101188.97
2023-04-15T23:59:19.223Z,101189.28
